»·PEaware :: N725CK KAVX-KSAN

N725CK :: KAVX-KSAN

FLIGHT INFORMATION

Flight Status: Arrived
Operator: Privately registered:
United States
More flights under this callsign
Pilot: Christopher K. (27671)
Aircraft: SOCATA TBM-900
(TBM9)
More flights by this aircraft type
Origin: KAVX Catalina
United States
Destination: KSAN San Diego Intl-Lindbergh
United States
More flights between these airports :: More routes between these airports
Route: +SXC V208 LAX118 CARDI MZB320 MZB
File this flight plan on PilotEdge
Remarks: I-8 Rating
Altitude:
(Current/Filed)
9,000ft
Speed:
(Current/Filed)
230kts
Departed: 05-Feb-20 12:48 PM
Arrived: 05-Feb-20 01:27 PM
Distance/Time
Traveled:
74nm/0:39
Distance/Time
To Go:
Arrived

Flight Plot

Page will automatically refresh every two minutes.


Map Options




Map Legend


Flown Route
Filed Route
Departure Airport
Arrival Airport
Navaid (VOR, NDB)
Fix

Horizontal Profiles

Position Reports

Time Latitude Longitude Heading Altitude Ground
Speed
05-Feb-20 12:36 33.403251 -118.415571 48 1604ft 0kts
05-Feb-20 12:37 33.403251 -118.415571 48 1604ft 0kts
05-Feb-20 12:38 33.403251 -118.415571 48 1604ft 0kts
05-Feb-20 12:39 33.403251 -118.415571 48 1604ft 0kts
05-Feb-20 12:40 33.403251 -118.415571 48 1604ft 0kts
05-Feb-20 12:41 33.403251 -118.415571 48 1604ft 0kts
05-Feb-20 12:42 33.403251 -118.415571 48 1604ft 0kts
05-Feb-20 12:43 33.403251 -118.415571 48 1604ft 0kts
05-Feb-20 12:44 33.403771 -118.415004 34 1604ft 9kts
05-Feb-20 12:45 33.406376 -118.412767 51 1604ft 13kts
05-Feb-20 12:46 33.407499 -118.411521 288 1604ft 8kts
05-Feb-20 12:47 33.405917 -118.414240 235 1604ft 74kts
05-Feb-20 12:48 33.387204 -118.442275 232 2732ft 128kts
05-Feb-20 12:49 33.364366 -118.472712 232 4139ft 115kts
05-Feb-20 12:50 33.338623 -118.509929 263 5021ft 189kts
05-Feb-20 12:51 33.379194 -118.512399 75 5109ft 241kts
05-Feb-20 12:52 33.373821 -118.455890 80 8343ft 151kts
05-Feb-20 12:53 33.372242 -118.395332 93 9044ft 230kts
05-Feb-20 12:54 33.361254 -118.313540 93 9005ft 259kts
05-Feb-20 12:55 33.349946 -118.227691 93 9002ft 261kts
05-Feb-20 12:56 33.338636 -118.141976 93 9003ft 259kts
05-Feb-20 12:57 33.327354 -118.056888 93 9018ft 258kts
05-Feb-20 12:58 33.309164 -117.973000 105 9027ft 263kts
05-Feb-20 12:59 33.283580 -117.890376 105 9033ft 266kts
05-Feb-20 13:00 33.257328 -117.806212 106 9039ft 271kts
05-Feb-20 13:01 33.231029 -117.722127 106 9038ft 269kts
05-Feb-20 13:02 33.204659 -117.638026 106 9039ft 269kts
05-Feb-20 13:03 33.178309 -117.554245 105 9038ft 269kts
05-Feb-20 13:04 33.152026 -117.470899 105 9035ft 266kts
05-Feb-20 13:05 33.106985 -117.405330 152 9039ft 274kts
05-Feb-20 13:06 33.038057 -117.367124 152 9027ft 272kts
05-Feb-20 13:07 32.976246 -117.332793 153 7609ft 224kts
05-Feb-20 13:08 32.921973 -117.302731 153 7018ft 203kts
05-Feb-20 13:09 32.868600 -117.273166 153 7042ft 223kts
05-Feb-20 13:10 32.810505 -117.241047 153 7036ft 233kts
05-Feb-20 13:11 32.770145 -117.194054 91 7047ft 204kts
05-Feb-20 13:12 32.763786 -117.127258 91 7047ft 202kts
05-Feb-20 13:13 32.757033 -117.060486 91 7010ft 205kts
05-Feb-20 13:14 32.749680 -116.993003 91 7008ft 206kts
05-Feb-20 13:15 32.742063 -116.925444 91 7006ft 204kts
05-Feb-20 13:16 32.707239 -116.898516 191 6139ft 167kts
05-Feb-20 13:17 32.678606 -116.925885 251 4091ft 142kts
05-Feb-20 13:18 32.679185 -116.964000 288 3603ft 109kts
05-Feb-20 13:19 32.687555 -117.000634 290 3279ft 114kts
05-Feb-20 13:20 32.696467 -117.037044 289 2703ft 111kts
05-Feb-20 13:22 32.703833 -117.066782 289 1996ft 84kts
05-Feb-20 13:23 32.710306 -117.093577 288 1806ft 83kts
05-Feb-20 13:24 32.716736 -117.120173 287 1196ft 83kts
05-Feb-20 13:25 32.723180 -117.146692 286 703ft 82kts
05-Feb-20 13:26 32.729525 -117.172998 285 202ft 82kts
05-Feb-20 13:27 32.734102 -117.188010 14 20ft 8kts
05-Feb-20 13:28 32.735142 -117.188121 294 20ft 4kts
05-Feb-20 13:29 32.735164 -117.188208 285 20ft 0kts
05-Feb-20 13:30 32.735164 -117.188208 285 20ft 0kts
05-Feb-20 13:31 32.735164 -117.188208 285 20ft 0kts
05-Feb-20 13:32 32.735164 -117.188208 285 20ft 0kts
05-Feb-20 13:33 32.735164 -117.188208 285 20ft 0kts
05-Feb-20 13:34 32.735164 -117.188208 285 20ft 0kts
05-Feb-20 13:35 32.735164 -117.188208 285 20ft 0kts
05-Feb-20 13:36 32.735164 -117.188208 285 20ft 0kts
05-Feb-20 13:37 32.735164 -117.188208 285 20ft 0kts
05-Feb-20 13:38 32.735164 -117.188208 285 20ft 0kts

Navigation Log

Ident Type
Flight plan parsing failed, navigation log unavailable